sensor_id;sensor_type;location;lat;lon;timestamp;P1;durP1;ratioP1;P2;durP2;ratioP2
59024;SDS011;44806;48.008;13.666;2023-06-19T15:45:17;9.07;;;5.32;;
59024;SDS011;44806;48.008;13.666;2023-06-19T15:47:44;8.55;;;5.45;;
59024;SDS011;44806;48.008;13.666;2023-06-19T15:50:11;13.07;;;5.28;;
59024;SDS011;44806;48.008;13.666;2023-06-19T15:52:37;7.90;;;5.07;;
59024;SDS011;44806;48.008;13.666;2023-06-19T15:55:05;8.05;;;5.63;;
59024;SDS011;44806;48.008;13.666;2023-06-19T15:57:33;7.75;;;5.43;;
59024;SDS011;44806;48.008;13.666;2023-06-19T16:00:00;8.55;;;5.18;;
59024;SDS011;44806;48.008;13.666;2023-06-19T16:02:28;7.45;;;5.60;;
59024;SDS011;44806;48.008;13.666;2023-06-19T16:04:55;7.07;;;5.35;;
59024;SDS011;44806;48.008;13.666;2023-06-19T16:07:22;7.30;;;4.82;;
59024;SDS011;44806;48.008;13.666;2023-06-19T16:09:49;7.15;;;5.03;;
59024;SDS011;44806;48.008;13.666;2023-06-19T16:12:16;7.82;;;5.20;;
59024;SDS011;44806;48.008;13.666;2023-06-19T16:14:43;9.13;;;4.93;;
59024;SDS011;44806;48.008;13.666;2023-06-19T16:17:10;7.22;;;5.10;;
59024;SDS011;44806;48.008;13.666;2023-06-19T16:19:38;7.03;;;5.30;;
59024;SDS011;44806;48.008;13.666;2023-06-19T16:22:05;7.88;;;5.20;;
59024;SDS011;44806;48.008;13.666;2023-06-19T16:24:32;7.00;;;4.80;;
59024;SDS011;44806;48.008;13.666;2023-06-19T16:26:59;6.93;;;5.40;;
59024;SDS011;44806;48.008;13.666;2023-06-19T16:29:26;6.50;;;4.90;;
59024;SDS011;44806;48.008;13.666;2023-06-19T16:31:53;7.35;;;5.13;;
59024;SDS011;44806;48.008;13.666;2023-06-19T16:34:20;8.38;;;4.95;;
59024;SDS011;44806;48.008;13.666;2023-06-19T16:36:48;6.47;;;4.85;;
59024;SDS011;44806;48.008;13.666;2023-06-19T16:39:15;6.97;;;4.85;;
59024;SDS011;44806;48.008;13.666;2023-06-19T16:41:42;8.02;;;4.80;;
59024;SDS011;44806;48.008;13.666;2023-06-19T16:44:09;6.60;;;4.90;;
59024;SDS011;44806;48.008;13.666;2023-06-19T16:46:36;8.20;;;4.93;;
59024;SDS011;44806;48.008;13.666;2023-06-19T16:49:03;7.25;;;4.72;;
59024;SDS011;44806;48.008;13.666;2023-06-19T16:51:30;6.47;;;4.40;;
59024;SDS011;44806;48.008;13.666;2023-06-19T16:53:59;9.15;;;4.68;;
59024;SDS011;44806;48.008;13.666;2023-06-19T16:56:26;6.90;;;4.90;;
59024;SDS011;44806;48.008;13.666;2023-06-19T16:58:53;7.03;;;4.78;;
59024;SDS011;44806;48.008;13.666;2023-06-19T17:01:20;7.13;;;4.88;;
59024;SDS011;44806;48.008;13.666;2023-06-19T17:03:47;6.78;;;4.43;;
59024;SDS011;44806;48.008;13.666;2023-06-19T17:06:14;7.97;;;4.90;;
59024;SDS011;44806;48.008;13.666;2023-06-19T17:08:41;7.88;;;4.50;;
59024;SDS011;44806;48.008;13.666;2023-06-19T17:11:09;7.82;;;4.82;;
59024;SDS011;44806;48.008;13.666;2023-06-19T17:13:36;8.60;;;4.85;;
59024;SDS011;44806;48.008;13.666;2023-06-19T17:16:04;6.07;;;4.30;;
59024;SDS011;44806;48.008;13.666;2023-06-19T17:18:31;8.55;;;4.00;;
59024;SDS011;44806;48.008;13.666;2023-06-19T17:20:58;6.88;;;4.20;;
59024;SDS011;44806;48.008;13.666;2023-06-19T17:23:26;6.57;;;4.22;;
59024;SDS011;44806;48.008;13.666;2023-06-19T17:25:53;9.30;;;4.63;;
59024;SDS011;44806;48.008;13.666;2023-06-19T17:28:21;6.63;;;4.30;;
59024;SDS011;44806;48.008;13.666;2023-06-19T17:30:48;6.70;;;4.40;;
59024;SDS011;44806;48.008;13.666;2023-06-19T17:33:15;7.40;;;4.38;;
59024;SDS011;44806;48.008;13.666;2023-06-19T17:35:42;6.32;;;4.05;;
59024;SDS011;44806;48.008;13.666;2023-06-19T17:38:09;7.05;;;4.18;;
59024;SDS011;44806;48.008;13.666;2023-06-19T17:40:36;6.82;;;4.30;;
59024;SDS011;44806;48.008;13.666;2023-06-19T17:43:03;6.07;;;4.38;;
59024;SDS011;44806;48.008;13.666;2023-06-19T17:45:31;7.88;;;4.47;;
59024;SDS011;44806;48.008;13.666;2023-06-19T17:47:58;9.10;;;4.75;;
59024;SDS011;44806;48.008;13.666;2023-06-19T17:50:27;8.20;;;4.75;;
59024;SDS011;44806;48.008;13.666;2023-06-19T17:52:54;9.40;;;4.63;;
59024;SDS011;44806;48.008;13.666;2023-06-19T17:55:21;7.00;;;4.20;;
59024;SDS011;44806;48.008;13.666;2023-06-19T17:57:48;7.00;;;4.50;;
59024;SDS011;44806;48.008;13.666;2023-06-19T18:00:15;7.53;;;4.57;;
59024;SDS011;44806;48.008;13.666;2023-06-19T18:02:43;7.47;;;4.78;;
59024;SDS011;44806;48.008;13.666;2023-06-19T18:05:11;6.82;;;4.88;;
59024;SDS011;44806;48.008;13.666;2023-06-19T18:07:38;6.65;;;4.68;;
59024;SDS011;44806;48.008;13.666;2023-06-19T18:10:05;6.22;;;4.78;;
59024;SDS011;44806;48.008;13.666;2023-06-19T18:12:33;8.95;;;4.55;;
59024;SDS011;44806;48.008;13.666;2023-06-19T18:15:00;7.57;;;4.53;;
59024;SDS011;44806;48.008;13.666;2023-06-19T18:17:28;7.38;;;4.63;;
59024;SDS011;44806;48.008;13.666;2023-06-19T18:19:56;6.18;;;4.50;;
59024;SDS011;44806;48.008;13.666;2023-06-19T18:22:23;6.90;;;4.72;;
59024;SDS011;44806;48.008;13.666;2023-06-19T18:24:50;6.82;;;4.45;;
59024;SDS011;44806;48.008;13.666;2023-06-19T18:27:17;7.65;;;4.60;;
59024;SDS011;44806;48.008;13.666;2023-06-19T18:29:44;9.52;;;5.20;;
59024;SDS011;44806;48.008;13.666;2023-06-19T18:32:11;6.85;;;4.80;;
59024;SDS011;44806;48.008;13.666;2023-06-19T18:34:38;8.57;;;5.30;;
59024;SDS011;44806;48.008;13.666;2023-06-19T18:37:06;7.82;;;4.72;;
59024;SDS011;44806;48.008;13.666;2023-06-19T18:39:33;8.95;;;5.03;;
59024;SDS011;44806;48.008;13.666;2023-06-19T18:42:02;6.65;;;4.78;;
59024;SDS011;44806;48.008;13.666;2023-06-19T18:44:29;7.45;;;5.18;;
59024;SDS011;44806;48.008;13.666;2023-06-19T18:46:56;8.38;;;5.22;;
59024;SDS011;44806;48.008;13.666;2023-06-19T18:49:23;7.30;;;5.22;;
59024;SDS011;44806;48.008;13.666;2023-06-19T18:51:50;7.63;;;5.10;;
59024;SDS011;44806;48.008;13.666;2023-06-19T18:54:19;9.02;;;5.03;;
59024;SDS011;44806;48.008;13.666;2023-06-19T18:56:46;8.60;;;5.45;;
59024;SDS011;44806;48.008;13.666;2023-06-19T18:59:13;7.45;;;5.45;;
59024;SDS011;44806;48.008;13.666;2023-06-19T19:01:39;8.52;;;5.53;;
59024;SDS011;44806;48.008;13.666;2023-06-19T19:04:06;8.27;;;5.70;;
59024;SDS011;44806;48.008;13.666;2023-06-19T19:06:33;7.63;;;5.68;;
59024;SDS011;44806;48.008;13.666;2023-06-19T19:09:00;7.82;;;5.78;;
59024;SDS011;44806;48.008;13.666;2023-06-19T19:11:29;8.10;;;6.07;;
59024;SDS011;44806;48.008;13.666;2023-06-19T19:13:56;9.20;;;5.72;;
59024;SDS011;44806;48.008;13.666;2023-06-19T19:16:23;8.65;;;5.18;;
59024;SDS011;44806;48.008;13.666;2023-06-19T19:18:49;8.43;;;5.47;;
59024;SDS011;44806;48.008;13.666;2023-06-19T19:21:16;9.07;;;5.68;;
59024;SDS011;44806;48.008;13.666;2023-06-19T19:23:43;10.57;;;5.75;;
59024;SDS011;44806;48.008;13.666;2023-06-19T19:26:10;8.93;;;6.03;;
59024;SDS011;44806;48.008;13.666;2023-06-19T19:28:39;7.72;;;5.70;;
59024;SDS011;44806;48.008;13.666;2023-06-19T19:31:06;8.43;;;5.80;;
59024;SDS011;44806;48.008;13.666;2023-06-19T19:33:34;8.45;;;5.80;;
59024;SDS011;44806;48.008;13.666;2023-06-19T19:36:02;8.05;;;5.70;;
59024;SDS011;44806;48.008;13.666;2023-06-19T19:38:29;7.95;;;5.80;;
59024;SDS011;44806;48.008;13.666;2023-06-19T19:40:56;8.55;;;5.95;;
59024;SDS011;44806;48.008;13.666;2023-06-19T19:43:23;8.73;;;6.00;;
59024;SDS011;44806;48.008;13.666;2023-06-19T19:45:51;8.82;;;5.65;;
59024;SDS011;44806;48.008;13.666;2023-06-19T19:48:18;8.60;;;5.88;;
59024;SDS011;44806;48.008;13.666;2023-06-19T19:50:46;8.25;;;5.70;;
59024;SDS011;44806;48.008;13.666;2023-06-19T19:53:12;8.45;;;6.30;;
59024;SDS011;44806;48.008;13.666;2023-06-19T19:55:39;8.52;;;6.13;;
59024;SDS011;44806;48.008;13.666;2023-06-19T19:58:06;8.95;;;6.30;;
59024;SDS011;44806;48.008;13.666;2023-06-19T20:00:33;7.50;;;6.22;;
59024;SDS011;44806;48.008;13.666;2023-06-19T20:03:01;7.55;;;5.85;;
59024;SDS011;44806;48.008;13.666;2023-06-19T20:05:28;7.32;;;5.93;;
59024;SDS011;44806;48.008;13.666;2023-06-19T20:07:55;7.25;;;6.10;;
59024;SDS011;44806;48.008;13.666;2023-06-19T20:10:23;8.38;;;6.60;;
59024;SDS011;44806;48.008;13.666;2023-06-19T20:12:50;8.05;;;6.88;;
59024;SDS011;44806;48.008;13.666;2023-06-19T20:15:16;7.28;;;6.10;;
59024;SDS011;44806;48.008;13.666;2023-06-19T20:17:43;7.90;;;6.22;;
59024;SDS011;44806;48.008;13.666;2023-06-19T20:20:12;8.27;;;6.75;;
59024;SDS011;44806;48.008;13.666;2023-06-19T20:22:39;8.52;;;6.60;;
59024;SDS011;44806;48.008;13.666;2023-06-19T20:25:06;12.23;;;7.07;;
59024;SDS011;44806;48.008;13.666;2023-06-19T20:27:34;9.15;;;6.63;;
59024;SDS011;44806;48.008;13.666;2023-06-19T20:30:01;10.57;;;6.75;;
59024;SDS011;44806;48.008;13.666;2023-06-19T20:32:28;8.98;;;6.82;;
59024;SDS011;44806;48.008;13.666;2023-06-19T20:34:55;9.52;;;6.38;;
59024;SDS011;44806;48.008;13.666;2023-06-19T20:37:23;8.98;;;6.80;;
59024;SDS011;44806;48.008;13.666;2023-06-19T20:39:50;9.32;;;6.25;;
59024;SDS011;44806;48.008;13.666;2023-06-19T20:42:17;10.02;;;7.07;;
59024;SDS011;44806;48.008;13.666;2023-06-19T20:44:44;9.35;;;7.00;;
59024;SDS011;44806;48.008;13.666;2023-06-19T20:47:11;10.90;;;7.05;;
59024;SDS011;44806;48.008;13.666;2023-06-19T20:49:38;9.85;;;7.03;;
59024;SDS011;44806;48.008;13.666;2023-06-19T20:52:05;9.23;;;7.00;;
59024;SDS011;44806;48.008;13.666;2023-06-19T20:54:34;10.05;;;7.28;;
59024;SDS011;44806;48.008;13.666;2023-06-19T20:57:01;11.07;;;7.10;;
59024;SDS011;44806;48.008;13.666;2023-06-19T20:59:28;9.05;;;6.40;;
59024;SDS011;44806;48.008;13.666;2023-06-19T21:01:55;11.43;;;7.20;;
59024;SDS011;44806;48.008;13.666;2023-06-19T21:04:25;9.55;;;7.35;;
59024;SDS011;44806;48.008;13.666;2023-06-19T21:06:51;11.25;;;7.32;;
59024;SDS011;44806;48.008;13.666;2023-06-19T21:09:18;9.85;;;6.50;;
59024;SDS011;44806;48.008;13.666;2023-06-19T21:11:47;9.32;;;7.43;;
59024;SDS011;44806;48.008;13.666;2023-06-19T21:14:14;9.38;;;7.65;;
59024;SDS011;44806;48.008;13.666;2023-06-19T21:16:41;9.40;;;6.68;;
59024;SDS011;44806;48.008;13.666;2023-06-19T21:19:08;9.00;;;7.25;;
59024;SDS011;44806;48.008;13.666;2023-06-19T21:21:35;11.35;;;7.22;;
59024;SDS011;44806;48.008;13.666;2023-06-19T21:24:02;12.05;;;6.40;;
59024;SDS011;44806;48.008;13.666;2023-06-19T21:26:29;10.63;;;7.82;;
59024;SDS011;44806;48.008;13.666;2023-06-19T21:28:58;13.13;;;7.80;;
59024;SDS011;44806;48.008;13.666;2023-06-19T21:31:24;10.48;;;6.63;;
59024;SDS011;44806;48.008;13.666;2023-06-19T21:33:51;9.50;;;5.90;;
59024;SDS011;44806;48.008;13.666;2023-06-19T21:36:18;9.40;;;7.35;;
59024;SDS011;44806;48.008;13.666;2023-06-19T21:38:45;9.15;;;6.47;;
59024;SDS011;44806;48.008;13.666;2023-06-19T21:41:12;8.50;;;7.18;;
59024;SDS011;44806;48.008;13.666;2023-06-19T21:43:39;9.75;;;6.45;;
59024;SDS011;44806;48.008;13.666;2023-06-19T21:46:08;9.77;;;6.95;;
59024;SDS011;44806;48.008;13.666;2023-06-19T21:48:34;9.15;;;7.63;;
59024;SDS011;44806;48.008;13.666;2023-06-19T21:51:01;10.55;;;6.35;;
59024;SDS011;44806;48.008;13.666;2023-06-19T21:53:28;10.52;;;6.40;;
59024;SDS011;44806;48.008;13.666;2023-06-19T21:55:55;10.85;;;6.50;;
59024;SDS011;44806;48.008;13.666;2023-06-19T21:58:23;11.30;;;7.57;;
59024;SDS011;44806;48.008;13.666;2023-06-19T22:00:50;10.00;;;6.40;;
59024;SDS011;44806;48.008;13.666;2023-06-19T22:03:19;9.20;;;6.78;;
59024;SDS011;44806;48.008;13.666;2023-06-19T22:05:46;9.65;;;5.82;;
59024;SDS011;44806;48.008;13.666;2023-06-19T22:08:13;9.95;;;6.70;;
59024;SDS011;44806;48.008;13.666;2023-06-19T22:10:40;9.32;;;6.53;;
59024;SDS011;44806;48.008;13.666;2023-06-19T22:13:06;9.90;;;6.82;;
59024;SDS011;44806;48.008;13.666;2023-06-19T22:15:37;10.40;;;6.72;;
59024;SDS011;44806;48.008;13.666;2023-06-19T22:18:03;9.93;;;6.55;;
59024;SDS011;44806;48.008;13.666;2023-06-19T22:20:32;9.68;;;6.53;;
59024;SDS011;44806;48.008;13.666;2023-06-19T22:22:59;10.60;;;6.30;;
59024;SDS011;44806;48.008;13.666;2023-06-19T22:25:26;9.27;;;6.20;;
59024;SDS011;44806;48.008;13.666;2023-06-19T22:27:53;10.57;;;7.35;;
59024;SDS011;44806;48.008;13.666;2023-06-19T22:30:20;9.57;;;6.40;;
59024;SDS011;44806;48.008;13.666;2023-06-19T22:32:47;9.70;;;6.53;;
59024;SDS011;44806;48.008;13.666;2023-06-19T22:35:14;9.25;;;6.22;;
59024;SDS011;44806;48.008;13.666;2023-06-19T22:37:43;9.05;;;6.13;;
59024;SDS011;44806;48.008;13.666;2023-06-19T22:40:10;9.20;;;6.50;;
59024;SDS011;44806;48.008;13.666;2023-06-19T22:42:38;9.32;;;6.72;;
59024;SDS011;44806;48.008;13.666;2023-06-19T22:45:06;10.30;;;6.70;;
59024;SDS011;44806;48.008;13.666;2023-06-19T22:47:34;11.38;;;7.30;;
59024;SDS011;44806;48.008;13.666;2023-06-19T22:50:03;9.55;;;6.75;;
59024;SDS011;44806;48.008;13.666;2023-06-19T22:52:30;10.65;;;6.75;;
59024;SDS011;44806;48.008;13.666;2023-06-19T22:54:59;9.02;;;6.90;;
59024;SDS011;44806;48.008;13.666;2023-06-19T22:57:26;10.75;;;6.97;;
59024;SDS011;44806;48.008;13.666;2023-06-19T22:59:55;11.13;;;7.00;;
59024;SDS011;44806;48.008;13.666;2023-06-19T23:02:22;11.38;;;6.85;;
59024;SDS011;44806;48.008;13.666;2023-06-19T23:04:49;10.82;;;7.07;;
59024;SDS011;44806;48.008;13.666;2023-06-19T23:07:20;10.38;;;7.03;;
59024;SDS011;44806;48.008;13.666;2023-06-19T23:09:47;11.25;;;6.85;;
59024;SDS011;44806;48.008;13.666;2023-06-19T23:12:15;10.32;;;7.35;;
59024;SDS011;44806;48.008;13.666;2023-06-19T23:14:45;12.45;;;7.85;;
59024;SDS011;44806;48.008;13.666;2023-06-19T23:17:12;11.32;;;7.68;;
59024;SDS011;44806;48.008;13.666;2023-06-19T23:19:39;10.25;;;6.85;;
59024;SDS011;44806;48.008;13.666;2023-06-19T23:22:07;11.90;;;7.15;;
59024;SDS011;44806;48.008;13.666;2023-06-19T23:24:34;11.07;;;7.90;;
59024;SDS011;44806;48.008;13.666;2023-06-19T23:27:01;10.70;;;7.57;;
59024;SDS011;44806;48.008;13.666;2023-06-19T23:29:30;11.45;;;7.22;;
59024;SDS011;44806;48.008;13.666;2023-06-19T23:31:57;12.02;;;7.82;;
59024;SDS011;44806;48.008;13.666;2023-06-19T23:34:25;10.90;;;7.65;;
59024;SDS011;44806;48.008;13.666;2023-06-19T23:36:52;10.45;;;7.18;;
59024;SDS011;44806;48.008;13.666;2023-06-19T23:39:19;10.73;;;7.40;;
59024;SDS011;44806;48.008;13.666;2023-06-19T23:41:47;10.25;;;7.22;;
59024;SDS011;44806;48.008;13.666;2023-06-19T23:44:14;10.93;;;7.30;;
59024;SDS011;44806;48.008;13.666;2023-06-19T23:46:42;11.30;;;7.50;;
59024;SDS011;44806;48.008;13.666;2023-06-19T23:49:10;11.00;;;7.25;;
59024;SDS011;44806;48.008;13.666;2023-06-19T23:51:37;10.38;;;6.95;;
59024;SDS011;44806;48.008;13.666;2023-06-19T23:54:04;10.70;;;6.60;;
59024;SDS011;44806;48.008;13.666;2023-06-19T23:56:31;10.25;;;7.38;;
59024;SDS011;44806;48.008;13.666;2023-06-19T23:58:58;13.02;;;7.13;;
